メインページ
METAR-TAF:

METAR-TAF

空港 :

ペナン国際空港

ペナン州, マレーシア

緯度: 05-18N, 経度: 100-16E, 海抜: 3m

現時点の気象観測

当レポートは36分前の05:00(UTC)に作成
変向風 1kt
気温 31°C
湿度 75%
気圧 1010 hPa
視程10km以上
高度2000ftの雲はほとんどない

METAR: WMKP 180500Z VRB01KT 9999 FEW020 31/26 Q1010 NOSIG

時間: 13:36 (05:36 UTC)

予報

当レポートは6時間36分前の23:00(UTC)に作成
予報は18日の 00時(UTC)から 19日の 00時(UTC)まで有効
変向風 6kt
視程10km以上
高度2000ftの雲はほとんどない

TAF: WMKP 172300Z 1800/1900 VRB06KT 9999 FEW020

4,000以上の空港の気象観測と天気予報(METAR報とTAF報)

利用可能な観測所は地図上に黄色い丸と赤い丸で示す。

丸の上にカーソルを重ねると観測所名を参照できる。

次にクリックすると気象観測と天気予報を参照できる。

マップの切り替え:黒色「×」印の緑ボタンをクリックして拡大、「-」印の緑ボタンをクリックして縮小、緑色の三角印をクリックして隣りの地図に切り替え


METAR-TAF: